Time;durP1;ratioP1;P1;durP2;ratioP2;P2;SDS_P1;SDS_P2;PMS_P1;PMS_P2;Temp;Humidity;BMP_temperature;BMP_pressure;BME280_temperature;BME280_humidity;BME280_pressure;Samples;Min_cycle;Max_cycle;Signal;HPM_P1;HPM_P2
2021/03/10 00:02:43;;;;;;;19.70;16.03;;;5.60;53.30;;;;;;6295321;28;20999;-63
2021/03/10 00:05:45;;;;;;;18.23;15.50;;;5.60;52.70;;;;;;6295080;28;20469;-63
2021/03/10 00:08:48;;;;;;;19.43;15.93;;;5.60;53.30;;;;;;6294769;28;20492;-63
2021/03/10 00:11:50;;;;;;;19.50;15.47;;;5.60;53.90;;;;;;6295607;28;20476;-63
2021/03/10 00:14:53;;;;;;;19.40;16.13;;;5.60;54.40;;;;;;6295196;28;20480;-63
2021/03/10 00:17:56;;;;;;;22.57;16.37;;;5.60;54.70;;;;;;6295264;28;20473;-64
2021/03/10 00:20:58;;;;;;;19.80;16.40;;;5.50;54.90;;;;;;6294803;28;20485;-63
2021/03/10 00:24:00;;;;;;;19.90;16.20;;;5.50;55.30;;;;;;6295011;28;20511;-63
2021/03/10 00:27:03;;;;;;;23.20;16.30;;;5.50;55.50;;;;;;6294916;28;20487;-64
2021/03/10 00:30:08;;;;;;;23.13;16.50;;;5.40;55.60;;;;;;6295197;28;20488;-64
2021/03/10 00:33:10;;;;;;;22.77;16.83;;;5.40;55.90;;;;;;6295192;28;20469;-63
2021/03/10 00:36:13;;;;;;;16.50;14.43;;;5.40;55.80;;;;;;6290294;28;20489;-63
2021/03/10 00:39:15;;;;;;;18.97;14.50;;;5.40;55.80;;;;;;6295083;28;20476;-63
2021/03/10 00:42:17;;;;;;;19.17;15.67;;;5.40;55.80;;;;;;6295164;28;21012;-63
2021/03/10 00:45:21;;;;;;;18.07;15.27;;;5.40;55.90;;;;;;6296370;28;20479;-64
2021/03/10 00:48:23;;;;;;;19.40;15.73;;;5.40;56.00;;;;;;6296549;28;21012;-63
2021/03/10 00:51:25;;;;;;;20.73;15.43;;;5.40;55.60;;;;;;6301415;28;20469;-64
2021/03/10 00:54:27;;;;;;;18.40;14.77;;;5.40;55.60;;;;;;6301320;28;20611;-63
2021/03/10 00:57:30;;;;;;;21.53;15.57;;;5.40;55.80;;;;;;6301653;28;20764;-64
2021/03/10 01:00:33;;;;;;;17.67;13.57;;;5.30;55.80;;;;;;6301588;28;20909;-64
2021/03/10 01:03:35;;;;;;;18.30;16.10;;;5.30;55.70;;;;;;6301074;28;20912;-63
2021/03/10 01:06:38;;;;;;;19.73;14.80;;;5.30;56.00;;;;;;6295789;28;20489;-63
2021/03/10 01:09:40;;;;;;;18.27;14.40;;;5.30;56.00;;;;;;6299635;28;20473;-62
2021/03/10 01:12:43;;;;;;;18.27;13.83;;;5.20;56.70;;;;;;6300890;28;20438;-62
2021/03/10 01:15:46;;;;;;;23.73;15.63;;;5.10;56.40;;;;;;6300552;28;20461;-63
2021/03/10 01:18:48;;;;;;;19.23;15.13;;;5.00;56.80;;;;;;6300624;28;20476;-62
2021/03/10 01:21:51;;;;;;;16.53;13.67;;;5.00;57.20;;;;;;6301009;28;20465;-62
2021/03/10 01:24:53;;;;;;;19.97;14.73;;;5.00;57.20;;;;;;6301717;28;20809;-62
2021/03/10 01:27:55;;;;;;;18.37;15.53;;;4.90;57.50;;;;;;6302530;28;20469;-62
2021/03/10 01:30:58;;;;;;;19.87;16.00;;;4.90;57.70;;;;;;6303476;28;20477;-62
2021/03/10 01:34:00;;;;;;;19.77;15.90;;;4.80;57.90;;;;;;6303411;28;20967;-63
2021/03/10 01:37:03;;;;;;;18.23;15.50;;;4.80;58.20;;;;;;6294093;28;20501;-63
2021/03/10 01:40:07;;;;;;;19.40;13.63;;;4.80;57.90;;;;;;6303691;28;20465;-63
2021/03/10 01:43:12;;;;;;;20.63;16.13;;;4.70;57.70;;;;;;6303511;28;20465;-63
2021/03/10 01:46:16;;;;;;;21.03;15.33;;;4.70;57.80;;;;;;6303138;28;20478;-63
2021/03/10 01:49:19;;;;;;;18.57;15.37;;;4.70;57.90;;;;;;6303428;28;20481;-64
2021/03/10 01:52:21;;;;;;;22.73;16.20;;;4.70;58.00;;;;;;6303132;28;20972;-63
2021/03/10 01:55:24;;;;;;;21.27;15.47;;;4.60;57.90;;;;;;6302998;28;20473;-63
2021/03/10 01:58:26;;;;;;;20.23;15.47;;;4.60;58.00;;;;;;6303074;28;20465;-64
2021/03/10 02:01:29;;;;;;;21.57;15.70;;;4.60;58.30;;;;;;6301695;28;20480;-64
2021/03/10 02:04:37;;;;;;;21.10;15.27;;;4.60;58.60;;;;;;6302332;28;20480;-64
2021/03/10 02:07:50;;;;;;;21.30;15.83;;;4.40;58.80;;;;;;6302854;28;20477;-63
2021/03/10 02:11:13;;;;;;;24.67;15.83;;;4.40;59.10;;;;;;6302613;28;20469;-63
2021/03/10 02:14:24;;;;;;;18.10;15.00;;;4.40;59.40;;;;;;6300968;28;20484;-64
2021/03/10 02:17:32;;;;;;;19.90;16.10;;;4.40;59.40;;;;;;6302639;28;20473;-64
2021/03/10 02:20:37;;;;;;;18.50;16.57;;;4.30;60.00;;;;;;6301842;28;20821;-63
2021/03/10 02:24:04;;;;;;;25.97;17.10;;;4.30;59.40;;;;;;6301929;28;20496;-65
2021/03/10 02:27:44;;;;;;;19.97;14.17;;;4.20;59.90;;;;;;6301739;28;20961;-64
2021/03/10 02:30:50;;;;;;;22.97;15.97;;;4.20;60.00;;;;;;6284083;28;20603;-63
2021/03/10 02:33:53;;;;;;;15.60;13.87;;;4.20;59.90;;;;;;6302098;28;20538;-62
2021/03/10 02:36:57;;;;;;;17.00;13.73;;;4.20;59.90;;;;;;6301771;28;20481;-63
2021/03/10 02:40:00;;;;;;;19.87;14.30;;;4.20;60.00;;;;;;6297840;28;20544;-64
2021/03/10 02:43:03;;;;;;;18.33;13.83;;;4.30;60.10;;;;;;6301587;28;20473;-63
2021/03/10 02:46:06;;;;;;;19.60;15.70;;;4.30;60.20;;;;;;6301911;28;20476;-64
2021/03/10 02:49:10;;;;;;;18.97;15.30;;;4.30;60.40;;;;;;6301722;28;20548;-64
2021/03/10 02:52:13;;;;;;;14.80;13.27;;;4.30;60.20;;;;;;6301351;28;20480;-64
2021/03/10 02:55:16;;;;;;;16.70;14.13;;;4.30;60.10;;;;;;6301910;28;20477;-64
2021/03/10 02:58:20;;;;;;;17.90;14.77;;;4.30;60.30;;;;;;6302011;28;20465;-64
2021/03/10 03:01:22;;;;;;;17.20;13.20;;;4.30;60.50;;;;;;6301689;28;20484;-62
2021/03/10 03:04:25;;;;;;;17.87;14.20;;;4.30;60.20;;;;;;6301108;28;20897;-62
2021/03/10 03:07:27;;;;;;;17.47;13.47;;;4.40;60.10;;;;;;6301727;28;20480;-62
2021/03/10 03:10:35;;;;;;;17.77;14.17;;;4.40;60.00;;;;;;6301314;28;20961;-62
2021/03/10 03:13:38;;;;;;;19.00;14.07;;;4.50;60.50;;;;;;6301143;28;20793;-62
2021/03/10 03:16:43;;;;;;;15.70;12.10;;;4.50;60.40;;;;;;6300997;28;20953;-62
2021/03/10 03:19:45;;;;;;;18.53;15.07;;;4.50;60.50;;;;;;6300900;28;20473;-62
2021/03/10 03:22:50;;;;;;;17.23;14.57;;;4.50;60.20;;;;;;6301330;28;20458;-62
2021/03/10 03:25:56;;;;;;;19.13;13.30;;;4.50;60.00;;;;;;6301057;28;20470;-62
2021/03/10 03:28:59;;;;;;;19.23;14.00;;;4.50;60.00;;;;;;6300674;28;20813;-61
2021/03/10 03:32:01;;;;;;;19.03;14.47;;;4.50;60.20;;;;;;6300866;28;20473;-62
2021/03/10 03:35:06;;;;;;;16.83;13.60;;;4.40;60.30;;;;;;6300612;28;20552;-62
2021/03/10 03:38:16;;;;;;;15.53;13.30;;;4.40;60.50;;;;;;6300802;28;20473;-63
2021/03/10 03:41:21;;;;;;;15.60;13.90;;;4.40;60.70;;;;;;6300615;28;20554;-61
2021/03/10 03:44:24;;;;;;;17.20;13.13;;;4.40;60.80;;;;;;6300181;28;20545;-62
2021/03/10 03:47:27;;;;;;;19.33;13.97;;;4.40;60.60;;;;;;6300074;28;20476;-62
2021/03/10 03:50:30;;;;;;;20.90;14.70;;;4.40;60.40;;;;;;6300354;28;20473;-62
2021/03/10 03:53:32;;;;;;;16.30;12.80;;;4.40;60.30;;;;;;6300182;28;20466;-62
2021/03/10 03:56:35;;;;;;;17.93;14.73;;;4.40;60.30;;;;;;6299852;28;20566;-60
2021/03/10 03:59:38;;;;;;;17.23;14.00;;;4.40;60.10;;;;;;6300149;28;20465;-60
2021/03/10 04:02:40;;;;;;;18.33;14.37;;;4.40;60.50;;;;;;6300153;28;20473;-60
2021/03/10 04:05:42;;;;;;;18.27;13.50;;;4.40;60.80;;;;;;6299943;28;20488;-61
2021/03/10 04:08:45;;;;;;;15.10;13.33;;;4.50;60.80;;;;;;6300402;28;20473;-61
2021/03/10 04:11:49;;;;;;;17.77;14.00;;;4.50;60.80;;;;;;6299955;28;20480;-62
2021/03/10 04:14:52;;;;;;;16.00;14.30;;;4.50;61.00;;;;;;6299792;28;20949;-62
2021/03/10 04:17:54;;;;;;;16.57;13.30;;;4.50;60.90;;;;;;6299801;28;20465;-62
2021/03/10 04:20:56;;;;;;;17.00;13.23;;;4.50;60.50;;;;;;6299340;28;20488;-62
2021/03/10 04:23:59;;;;;;;19.43;14.20;;;4.50;60.40;;;;;;6298856;28;20484;-62
2021/03/10 04:27:01;;;;;;;16.97;14.53;;;4.50;60.20;;;;;;6299458;28;20477;-62
2021/03/10 04:30:06;;;;;;;17.40;13.93;;;4.50;60.00;;;;;;6299493;28;20542;-62
2021/03/10 04:33:10;;;;;;;22.73;15.50;;;4.50;60.40;;;;;;6299631;28;20480;-62
2021/03/10 04:36:13;;;;;;;17.17;13.67;;;4.60;60.70;;;;;;6299300;28;20656;-62
2021/03/10 04:39:18;;;;;;;19.37;15.53;;;4.60;60.60;;;;;;6299618;28;20503;-62
2021/03/10 04:42:21;;;;;;;19.27;14.47;;;4.50;60.10;;;;;;6299214;28;20552;-62
2021/03/10 04:45:24;;;;;;;17.80;14.23;;;4.60;60.10;;;;;;6299193;28;20477;-62
2021/03/10 04:48:26;;;;;;;18.23;14.63;;;4.60;60.20;;;;;;6299238;28;20532;-62
2021/03/10 04:51:28;;;;;;;16.50;13.47;;;4.50;60.20;;;;;;6291281;28;20527;-62
2021/03/10 04:54:30;;;;;;;17.87;13.97;;;4.60;60.70;;;;;;6299456;28;20437;-62
2021/03/10 04:57:33;;;;;;;18.20;14.93;;;4.60;61.10;;;;;;6299702;28;20437;-62
2021/03/10 05:00:36;;;;;;;18.20;14.90;;;4.60;60.30;;;;;;6299493;28;20467;-62
2021/03/10 05:03:38;;;;;;;19.60;15.47;;;4.70;60.40;;;;;;6299422;28;20528;-61
2021/03/10 05:06:40;;;;;;;16.57;14.50;;;4.70;60.10;;;;;;6299372;28;20462;-61
2021/03/10 05:09:43;;;;;;;19.10;14.53;;;4.70;60.00;;;;;;6298951;28;20949;-61
2021/03/10 05:12:46;;;;;;;19.27;14.90;;;4.70;59.70;;;;;;6298931;28;20456;-61
2021/03/10 05:15:49;;;;;;;20.83;14.90;;;4.60;60.00;;;;;;6298899;28;20925;-61
2021/03/10 05:18:51;;;;;;;20.43;15.00;;;4.60;60.60;;;;;;6299057;28;20485;-62
2021/03/10 05:21:54;;;;;;;20.33;14.83;;;4.50;61.00;;;;;;6298966;28;20461;-62
2021/03/10 05:24:56;;;;;;;18.43;15.50;;;4.60;61.30;;;;;;6298782;28;20582;-62
2021/03/10 05:27:58;;;;;;;22.33;14.77;;;4.50;61.00;;;;;;6298846;28;20802;-62
2021/03/10 05:31:02;;;;;;;21.70;16.00;;;4.50;61.00;;;;;;6298666;28;20523;-62
2021/03/10 05:34:04;;;;;;;18.63;13.80;;;4.60;60.60;;;;;;6299143;28;20479;-62
2021/03/10 05:37:06;;;;;;;18.13;13.83;;;4.60;60.40;;;;;;6302816;28;20469;-62
2021/03/10 05:40:09;;;;;;;23.63;16.67;;;4.60;60.10;;;;;;6303592;28;20485;-62
2021/03/10 05:43:17;;;;;;;20.87;15.67;;;4.70;60.20;;;;;;6303150;28;20980;-62
2021/03/10 05:46:24;;;;;;;20.93;16.13;;;4.70;60.10;;;;;;6303563;28;20469;-62
2021/03/10 05:49:27;;;;;;;22.00;15.40;;;4.60;60.00;;;;;;6303012;28;20973;-62
2021/03/10 05:52:31;;;;;;;22.70;16.17;;;4.60;60.40;;;;;;6299073;28;20461;-62
2021/03/10 05:55:34;;;;;;;22.87;16.60;;;4.60;60.50;;;;;;6302944;28;20477;-62
2021/03/10 05:58:36;;;;;;;22.00;14.70;;;4.70;59.70;;;;;;6303274;28;20480;-62
2021/03/10 06:01:39;;;;;;;21.80;15.10;;;4.60;59.60;;;;;;6302811;28;20806;-62
2021/03/10 06:04:43;;;;;;;20.00;13.80;;;4.70;59.60;;;;;;6302968;28;20580;-62
2021/03/10 06:07:45;;;;;;;21.43;15.73;;;4.70;59.70;;;;;;6302551;28;20813;-62
2021/03/10 06:10:48;;;;;;;19.37;15.83;;;4.80;59.40;;;;;;6302829;28;20479;-62
2021/03/10 06:13:51;;;;;;;18.67;14.10;;;4.80;59.10;;;;;;6302562;28;20818;-62
2021/03/10 06:17:05;;;;;;;17.20;15.20;;;4.90;59.00;;;;;;6302550;28;20480;-62
2021/03/10 06:20:08;;;;;;;20.00;14.43;;;5.00;58.90;;;;;;6301962;28;20805;-62
2021/03/10 06:23:15;;;;;;;21.80;17.20;;;5.10;58.40;;;;;;6302396;28;20469;-62
2021/03/10 06:26:19;;;;;;;19.17;16.00;;;5.10;58.10;;;;;;6302342;28;20469;-62
2021/03/10 06:29:21;;;;;;;17.47;15.10;;;5.20;57.80;;;;;;6302304;28;20957;-62
2021/03/10 06:32:24;;;;;;;19.63;16.03;;;5.20;57.70;;;;;;6301930;28;20968;-62
2021/03/10 06:35:27;;;;;;;17.80;15.00;;;5.30;57.40;;;;;;6302174;28;20469;-62
2021/03/10 06:38:29;;;;;;;22.90;16.10;;;5.40;57.20;;;;;;6302029;28;20518;-62
2021/03/10 06:41:33;;;;;;;18.40;16.40;;;5.40;57.00;;;;;;6301858;28;20784;-62
2021/03/10 06:44:36;;;;;;;19.67;14.93;;;5.40;57.00;;;;;;6301503;28;20969;-62
2021/03/10 06:47:41;;;;;;;17.10;14.15;;;5.40;56.70;;;;;;6301103;28;20465;-62
2021/03/10 06:50:44;;;;;;;18.17;15.17;;;5.50;56.70;;;;;;6301757;28;20862;-62
2021/03/10 06:53:47;;;;;;;20.50;15.93;;;5.50;56.40;;;;;;6301691;28;20461;-62
2021/03/10 06:56:59;;;;;;;20.30;17.40;;;5.70;56.10;;;;;;6301651;28;20473;-62
2021/03/10 07:00:02;;;;;;;18.73;14.63;;;6.00;55.40;;;;;;6301714;28;20466;-62
2021/03/10 07:03:06;;;;;;;16.97;15.13;;;6.30;54.70;;;;;;6301369;28;20477;-63
2021/03/10 07:06:09;;;;;;;20.30;13.60;;;6.40;53.60;;;;;;6301362;28;20478;-63
2021/03/10 07:09:13;;;;;;;18.03;16.10;;;6.60;53.40;;;;;;6301717;28;20491;-62
2021/03/10 07:12:18;;;;;;;20.43;15.10;;;6.60;52.90;;;;;;6301194;28;20527;-63
2021/03/10 07:15:20;;;;;;;22.73;15.40;;;6.60;52.80;;;;;;6301072;28;20473;-62
2021/03/10 07:18:25;;;;;;;20.93;14.73;;;6.60;52.70;;;;;;6301037;28;20476;-62
2021/03/10 07:21:30;;;;;;;18.97;15.70;;;6.60;52.70;;;;;;6300920;28;20477;-62
2021/03/10 07:24:38;;;;;;;20.27;15.43;;;6.80;52.60;;;;;;6300925;28;20897;-62
2021/03/10 07:27:45;;;;;;;18.37;15.10;;;6.80;52.40;;;;;;6300712;28;20441;-63
2021/03/10 07:30:49;;;;;;;17.33;14.20;;;7.00;52.10;;;;;;6301200;28;20495;-62
2021/03/10 07:33:54;;;;;;;20.33;15.40;;;7.10;51.40;;;;;;6300947;28;20449;-62
2021/03/10 07:36:57;;;;;;;20.53;15.47;;;7.00;51.50;;;;;;6300568;28;20475;-62
2021/03/10 07:40:11;;;;;;;19.10;16.07;;;7.30;51.60;;;;;;6300436;28;20483;-62
2021/03/10 07:43:13;;;;;;;19.50;15.10;;;7.60;50.70;;;;;;6300700;28;20537;-62
2021/03/10 07:46:22;;;;;;;19.67;14.40;;;7.90;50.40;;;;;;6300616;28;20465;-63
2021/03/10 07:49:26;;;;;;;16.43;13.83;;;8.30;49.70;;;;;;6300018;28;20554;-62
2021/03/10 07:52:29;;;;;;;20.90;15.93;;;8.80;48.80;;;;;;6300686;28;20466;-62
2021/03/10 07:55:42;;;;;;;16.23;14.53;;;9.50;48.20;;;;;;6300108;28;20480;-65
2021/03/10 07:58:44;;;;;;;16.90;14.70;;;12.10;44.30;;;;;;6299688;28;20481;-62
2021/03/10 08:01:47;;;;;;;18.30;14.30;;;14.90;40.50;;;;;;6291586;28;20474;-62
2021/03/10 08:04:56;;;;;;;17.57;15.70;;;17.40;34.80;;;;;;6300153;28;20500;-63
2021/03/10 08:08:09;;;;;;;17.40;15.40;;;19.20;31.30;;;;;;6299992;28;20473;-63
2021/03/10 08:11:14;;;;;;;18.60;16.63;;;20.30;28.70;;;;;;6299752;28;20237;-63
2021/03/10 08:14:17;;;;;;;19.70;16.63;;;20.50;28.20;;;;;;6299572;28;20285;-61
2021/03/10 08:17:21;;;;;;;17.60;15.90;;;21.50;27.50;;;;;;6299538;28;20239;-62
2021/03/10 08:20:30;;;;;;;18.97;17.23;;;23.00;25.80;;;;;;6299392;28;20314;-63
2021/03/10 08:23:33;;;;;;;18.60;17.00;;;24.10;24.70;;;;;;6299930;28;20246;-63
2021/03/10 08:26:35;;;;;;;19.20;17.30;;;25.10;23.60;;;;;;6298349;28;20698;-63
2021/03/10 08:29:46;;;;;;;18.60;16.90;;;23.90;23.00;;;;;;6299234;28;20306;-63
2021/03/10 08:32:49;;;;;;;18.60;16.97;;;23.20;23.70;;;;;;6299450;28;20235;-63
2021/03/10 08:35:52;;;;;;;17.40;15.70;;;23.40;23.60;;;;;;6298542;28;20673;-63
2021/03/10 08:38:55;;;;;;;17.77;16.17;;;24.30;22.80;;;;;;6298841;28;20226;-63
2021/03/10 08:42:01;;;;;;;19.67;17.67;;;25.20;22.60;;;;;;6298794;28;20713;-63
2021/03/10 08:45:05;;;;;;;19.37;17.40;;;26.00;21.40;;;;;;6299477;28;20234;-63
2021/03/10 08:48:09;;;;;;;18.83;17.07;;;25.10;21.30;;;;;;6298651;28;20242;-62
2021/03/10 08:51:12;;;;;;;19.90;17.90;;;24.50;22.30;;;;;;6296507;28;20223;-65
2021/03/10 08:54:16;;;;;;;16.93;15.33;;;26.00;21.50;;;;;;6299333;28;20223;-63
2021/03/10 08:57:20;;;;;;;17.73;16.20;;;26.80;20.60;;;;;;6298928;28;20234;-63
2021/03/10 09:00:25;;;;;;;19.17;17.47;;;28.10;20.00;;;;;;6297533;28;20214;-63
2021/03/10 09:03:27;;;;;;;18.10;16.60;;;28.80;19.10;;;;;;6292342;28;20303;-63
2021/03/10 09:06:31;;;;;;;19.43;17.73;;;27.10;19.90;;;;;;6280006;28;20562;-60
2021/03/10 09:09:35;;;;;;;19.13;17.30;;;28.40;19.40;;;;;;6296597;28;20328;-62
2021/03/10 09:12:41;;;;;;;19.57;17.87;;;28.20;19.40;;;;;;6292088;28;20240;-61
2021/03/10 09:15:43;;;;;;;19.77;17.93;;;28.70;19.20;;;;;;6303480;28;20222;-62
2021/03/10 09:18:58;;;;;;;18.73;16.97;;;29.10;18.80;;;;;;6300257;28;20195;-62
2021/03/10 09:22:15;;;;;;;18.37;16.77;;;29.50;18.30;;;;;;6278247;28;20305;-66
2021/03/10 09:25:36;;;;;;;20.80;19.00;;;30.20;18.00;;;;;;6278225;28;20231;-61
2021/03/10 09:28:40;;;;;;;21.00;19.17;;;27.70;18.80;;;;;;6281240;28;20231;-62
2021/03/10 09:31:52;;;;;;;20.23;18.53;;;26.40;20.00;;;;;;6303066;28;20272;-63
2021/03/10 09:34:55;;;;;;;22.23;20.07;;;24.60;21.00;;;;;;6303213;28;20695;-62
2021/03/10 09:38:05;;;;;;;20.70;18.70;;;25.10;21.40;;;;;;6281257;28;20237;-62
2021/03/10 09:41:07;;;;;;;20.43;18.70;;;26.20;20.70;;;;;;6278045;28;20322;-62
2021/03/10 09:44:10;;;;;;;18.53;17.03;;;27.80;19.90;;;;;;6277972;28;20231;-63
2021/03/10 09:47:14;;;;;;;21.00;19.10;;;29.40;18.90;;;;;;6278084;28;20341;-64
2021/03/10 09:50:28;;;;;;;20.70;18.80;;;29.90;18.30;;;;;;6277609;28;20242;-61
2021/03/10 09:53:36;;;;;;;21.17;19.33;;;30.20;18.10;;;;;;6277977;28;20235;-64
2021/03/10 09:56:49;;;;;;;20.08;18.48;;;31.90;17.30;;;;;;6278296;28;20239;-63
2021/03/10 09:59:52;;;;;;;21.65;19.83;;;32.10;16.90;;;;;;6277587;28;20253;-63
2021/03/10 10:02:54;;;;;;;19.10;17.60;;;32.70;16.50;;;;;;6279912;28;20563;-61
2021/03/10 10:06:07;;;;;;;20.50;18.80;;;34.00;15.80;;;;;;6302184;28;20248;-62
2021/03/10 10:09:11;;;;;;;20.23;18.45;;;33.00;16.20;;;;;;6302044;28;20317;-63
2021/03/10 10:12:14;;;;;;;19.33;17.48;;;31.40;16.70;;;;;;6280191;28;20277;-64
2021/03/10 10:15:18;;;;;;;19.42;17.70;;;30.50;17.20;;;;;;6299593;28;20613;-63
2021/03/10 10:18:20;;;;;;;19.83;18.23;;;30.80;17.50;;;;;;6301347;28;20222;-63
2021/03/10 10:21:22;;;;;;;20.50;18.92;;;32.10;16.70;;;;;;6300922;28;20248;-63
2021/03/10 10:24:25;;;;;;;19.88;18.17;;;32.50;16.00;;;;;;6301436;28;20309;-62
2021/03/10 10:27:28;;;;;;;18.90;17.40;;;33.40;16.00;;;;;;6301914;28;20234;-61
2021/03/10 10:30:30;;;;;;;21.30;19.40;;;34.10;15.30;;;;;;6301877;28;20233;-61
2021/03/10 10:33:32;;;;;;;21.33;19.53;;;30.60;16.50;;;;;;6301590;28;20207;-61
2021/03/10 10:36:35;;;;;;;20.47;18.70;;;26.70;18.50;;;;;;6301737;28;20233;-62
2021/03/10 10:39:53;;;;;;;20.17;18.47;;;24.70;20.50;;;;;;6302030;28;20227;-62
2021/03/10 10:42:56;;;;;;;25.00;17.80;;;23.70;21.00;;;;;;6302052;28;20249;-61
2021/03/10 10:45:58;;;;;;;20.00;16.93;;;23.20;21.90;;;;;;6301364;28;20250;-63
2021/03/10 10:49:01;;;;;;;20.27;18.10;;;23.00;22.60;;;;;;6301130;28;20230;-62
2021/03/10 10:52:04;;;;;;;18.93;17.00;;;23.50;22.10;;;;;;6301406;28;20436;-63
2021/03/10 10:55:12;;;;;;;20.60;18.63;;;23.20;22.00;;;;;;6301512;28;20246;-61
2021/03/10 10:58:14;;;;;;;19.57;17.90;;;21.70;22.90;;;;;;6301183;28;20265;-64
2021/03/10 11:01:16;;;;;;;16.77;15.10;;;20.50;23.80;;;;;;6301235;28;20238;-63
2021/03/10 11:04:19;;;;;;;17.27;15.67;;;19.40;24.70;;;;;;6289348;28;20676;-61
2021/03/10 11:07:21;;;;;;;19.33;17.30;;;18.20;25.90;;;;;;6301112;28;20272;-61
2021/03/10 11:10:25;;;;;;;18.83;16.93;;;16.90;27.20;;;;;;6289710;28;20490;-61
2021/03/10 11:13:27;;;;;;;18.77;16.83;;;14.80;29.10;;;;;;6276210;28;20552;-61
2021/03/10 11:16:29;;;;;;;18.50;16.70;;;13.70;31.30;;;;;;6294905;28;20473;-61
2021/03/10 11:19:31;;;;;;;19.70;17.43;;;13.10;32.40;;;;;;6300448;28;20541;-62
2021/03/10 11:22:35;;;;;;;19.13;16.63;;;12.80;33.30;;;;;;6300551;28;20462;-61
2021/03/10 11:25:38;;;;;;;20.93;16.60;;;12.80;33.60;;;;;;6300167;28;20483;-62
2021/03/10 11:28:40;;;;;;;20.83;16.33;;;13.20;33.90;;;;;;6300321;28;20481;-61
2021/03/10 11:31:44;;;;;;;18.80;15.23;;;14.10;33.70;;;;;;6300021;28;20473;-61
2021/03/10 11:34:46;;;;;;;19.60;16.17;;;14.40;32.40;;;;;;6275424;28;20462;-61
2021/03/10 11:37:49;;;;;;;18.40;15.73;;;14.10;32.10;;;;;;6275318;28;20567;-61
2021/03/10 11:40:52;;;;;;;18.13;16.20;;;13.90;32.80;;;;;;6275145;28;21141;-66
2021/03/10 11:43:55;;;;;;;18.13;15.70;;;13.50;33.00;;;;;;6288833;28;20558;-62
2021/03/10 11:47:00;;;;;;;17.50;15.70;;;13.10;33.80;;;;;;6299793;28;20578;-62
2021/03/10 11:50:02;;;;;;;20.33;15.33;;;12.80;34.20;;;;;;6299718;28;20806;-60
2021/03/10 11:53:05;;;;;;;18.90;16.20;;;12.70;34.50;;;;;;6299707;28;20474;-62
2021/03/10 11:56:09;;;;;;;17.53;15.70;;;12.80;34.70;;;;;;6299296;28;20563;-61
2021/03/10 11:59:11;;;;;;;18.53;15.00;;;12.80;34.60;;;;;;6299623;28;21002;-60
2021/03/10 12:02:13;;;;;;;21.90;17.07;;;12.90;35.20;;;;;;6299542;28;20489;-61
2021/03/10 12:05:17;;;;;;;19.93;17.03;;;12.90;35.70;;;;;;6287709;28;20489;-62
2021/03/10 12:08:19;;;;;;;19.73;16.87;;;12.80;36.30;;;;;;6299570;28;20470;-60
2021/03/10 12:11:25;;;;;;;20.00;16.90;;;12.40;37.40;;;;;;6284310;28;20494;-60
2021/03/10 12:14:27;;;;;;;19.90;16.80;;;12.10;38.60;;;;;;6274364;28;20565;-61
2021/03/10 12:17:29;;;;;;;18.70;16.37;;;11.60;40.40;;;;;;6274568;28;20535;-62
2021/03/10 12:20:32;;;;;;;20.10;18.00;;;11.40;42.10;;;;;;6274080;28;20478;-61
2021/03/10 12:23:35;;;;;;;19.00;17.10;;;11.10;46.50;;;;;;6274378;28;20479;-62
2021/03/10 12:26:41;;;;;;;20.40;18.30;;;11.10;49.00;;;;;;6274235;28;20558;-62
2021/03/10 12:29:46;;;;;;;21.43;17.87;;;11.90;48.70;;;;;;6274060;28;20486;-63
2021/03/10 12:32:48;;;;;;;22.40;16.97;;;12.90;47.70;;;;;;6274170;28;20477;-63
2021/03/10 12:35:51;;;;;;;18.90;17.00;;;13.30;43.80;;;;;;6273650;28;20478;-63
2021/03/10 12:38:54;;;;;;;19.50;17.47;;;14.10;44.00;;;;;;6274088;28;20473;-63
2021/03/10 12:41:57;;;;;;;20.80;16.90;;;16.60;40.20;;;;;;6273867;28;20481;-63
2021/03/10 12:45:03;;;;;;;25.03;18.03;;;18.50;35.40;;;;;;6273550;28;20485;-63
2021/03/10 12:48:06;;;;;;;18.40;16.50;;;19.60;33.70;;;;;;6274149;28;20807;-62
2021/03/10 12:51:10;;;;;;;21.60;18.37;;;20.90;31.50;;;;;;6273710;28;20243;-64
2021/03/10 12:54:12;;;;;;;20.90;17.30;;;21.50;29.80;;;;;;6274060;28;20236;-60
2021/03/10 12:57:16;;;;;;;20.37;18.23;;;21.50;28.70;;;;;;6273814;28;20246;-62
2021/03/10 13:00:19;;;;;;;21.70;19.60;;;21.50;28.20;;;;;;6273788;28;20251;-63
2021/03/10 13:03:22;;;;;;;24.40;18.10;;;23.40;27.70;;;;;;6273558;28;20310;-62
2021/03/10 13:06:24;;;;;;;20.37;18.57;;;26.40;26.00;;;;;;6294829;28;20244;-63
2021/03/10 13:09:26;;;;;;;20.13;18.33;;;29.20;23.00;;;;;;6297680;28;20300;-62
2021/03/10 13:12:31;;;;;;;21.47;19.40;;;30.80;21.30;;;;;;6274391;28;20254;-62
2021/03/10 13:15:45;;;;;;;20.53;18.63;;;31.80;20.20;;;;;;6273433;28;20647;-62
2021/03/10 13:18:47;;;;;;;20.50;18.75;;;34.00;18.60;;;;;;6264643;28;20214;-63
2021/03/10 13:21:50;;;;;;;20.40;18.75;;;34.50;17.40;;;;;;6273356;28;20231;-62
2021/03/10 13:24:52;;;;;;;20.90;19.20;;;32.10;18.00;;;;;;6283666;28;20242;-62
2021/03/10 13:27:55;;;;;;;21.07;19.27;;;29.20;19.70;;;;;;6281793;28;20720;-62
2021/03/10 13:30:57;;;;;;;20.40;18.70;;;27.10;21.20;;;;;;6297932;28;20235;-62
2021/03/10 13:34:00;;;;;;;21.50;19.13;;;25.70;23.10;;;;;;6273421;28;20254;-62
2021/03/10 13:37:02;;;;;;;18.43;16.70;;;25.50;23.00;;;;;;6273282;28;20254;-64
2021/03/10 13:40:06;;;;;;;19.23;17.60;;;24.50;23.60;;;;;;6277018;28;20233;-63
2021/03/10 13:43:09;;;;;;;19.50;17.73;;;23.10;24.30;;;;;;6297870;28;20780;-64
2021/03/10 13:46:11;;;;;;;17.67;15.97;;;21.70;25.70;;;;;;6297916;28;20230;-64
2021/03/10 13:49:14;;;;;;;16.77;15.27;;;19.90;26.80;;;;;;6298036;28;20242;-63
2021/03/10 13:52:16;;;;;;;18.10;16.37;;;18.60;28.20;;;;;;6298162;28;20235;-62
2021/03/10 13:55:19;;;;;;;22.37;16.30;;;17.40;29.50;;;;;;6297640;28;20485;-62
2021/03/10 13:58:22;;;;;;;16.00;14.50;;;16.40;30.90;;;;;;6286228;28;20544;-62
2021/03/10 14:01:27;;;;;;;19.13;14.20;;;15.70;32.40;;;;;;6277627;28;20482;-61
2021/03/10 14:04:29;;;;;;;16.53;14.90;;;14.90;33.60;;;;;;6282666;28;20461;-62
2021/03/10 14:07:32;;;;;;;21.63;16.10;;;14.20;34.50;;;;;;6302460;28;20552;-62
2021/03/10 14:10:35;;;;;;;20.00;16.97;;;14.00;38.00;;;;;;6293540;28;20575;-62
2021/03/10 14:13:38;;;;;;;18.80;16.40;;;13.80;40.00;;;;;;6277085;28;20485;-61
2021/03/10 14:16:40;;;;;;;20.60;17.50;;;13.50;41.40;;;;;;6276976;28;20962;-63
2021/03/10 14:19:43;;;;;;;17.90;16.00;;;13.40;41.70;;;;;;6277264;28;20827;-62
2021/03/10 14:22:48;;;;;;;19.03;16.73;;;13.40;41.90;;;;;;6272071;28;20527;-61
2021/03/10 14:25:51;;;;;;;17.03;15.33;;;13.10;42.80;;;;;;6276752;28;20539;-62
2021/03/10 14:28:55;;;;;;;21.13;15.70;;;13.20;42.70;;;;;;6277094;28;20500;-61
2021/03/10 14:31:57;;;;;;;19.27;17.40;;;13.20;42.70;;;;;;6283910;28;20473;-62
2021/03/10 14:35:00;;;;;;;18.77;15.90;;;13.20;42.80;;;;;;6301659;28;20470;-62
2021/03/10 14:38:03;;;;;;;19.27;16.10;;;12.90;42.60;;;;;;6301343;28;20469;-61
2021/03/10 14:41:05;;;;;;;18.33;16.43;;;12.60;43.00;;;;;;6301495;28;20541;-62
2021/03/10 14:44:08;;;;;;;20.17;16.60;;;12.60;43.70;;;;;;6301249;28;20519;-62
2021/03/10 14:47:11;;;;;;;18.53;16.53;;;12.50;43.80;;;;;;6301238;28;20487;-61
2021/03/10 14:50:13;;;;;;;17.50;15.80;;;12.30;44.20;;;;;;6301146;28;20477;-62
2021/03/10 14:53:15;;;;;;;17.20;15.40;;;12.10;45.20;;;;;;6300794;28;20537;-62
2021/03/10 14:56:18;;;;;;;17.10;15.40;;;11.70;45.20;;;;;;6300498;28;20568;-64
2021/03/10 14:59:21;;;;;;;17.67;13.90;;;11.50;45.90;;;;;;6301019;28;20470;-62
2021/03/10 15:02:24;;;;;;;19.63;16.20;;;11.20;46.30;;;;;;6300836;28;20475;-62
2021/03/10 15:05:26;;;;;;;17.07;14.90;;;11.00;46.70;;;;;;6276229;28;20470;-63
2021/03/10 15:08:28;;;;;;;18.30;15.50;;;10.90;47.00;;;;;;6275553;28;20612;-62
2021/03/10 15:11:31;;;;;;;19.30;15.77;;;10.70;48.10;;;;;;6291449;28;20473;-64
2021/03/10 15:14:35;;;;;;;18.07;15.83;;;10.50;50.60;;;;;;6300428;28;20925;-62
2021/03/10 15:17:39;;;;;;;14.20;12.50;;;10.30;50.90;;;;;;6300645;28;20936;-61
2021/03/10 15:20:42;;;;;;;14.03;11.90;;;10.20;52.30;;;;;;6300285;28;20534;-62
2021/03/10 15:23:44;;;;;;;14.83;12.30;;;10.10;52.20;;;;;;6300422;28;20510;-61
2021/03/10 15:26:46;;;;;;;13.93;12.47;;;9.90;53.90;;;;;;6300140;28;20611;-61
2021/03/10 15:29:50;;;;;;;16.30;14.07;;;9.70;55.20;;;;;;6290612;28;21136;-61
2021/03/10 15:32:53;;;;;;;14.93;13.33;;;9.70;55.10;;;;;;6282595;28;20513;-61
2021/03/10 15:35:56;;;;;;;17.63;14.90;;;9.80;55.20;;;;;;6275006;28;20493;-61
2021/03/10 15:38:58;;;;;;;13.27;11.97;;;9.80;56.60;;;;;;6274699;28;20481;-62
2021/03/10 15:42:00;;;;;;;12.40;10.20;;;9.70;57.70;;;;;;6275071;28;20612;-62